• Join FlightAware (Why Join?)
  • Login
  • US Flag 
12:41AM EDT


 

Airport Tracker/Info


-or-


 

Live Flight TrackerFlight Track Log ✈ N521LL ✈ 28-Apr-2013 ✈ KLBB - KCRP

Flight Track Log - Related Links

Times and Time Zones

All times are in EDT time to prevent confusion due to time zone crossing. See the N521LL flight status page for this flight to view local times or setup timezone preferences in your user account.

Time Position Orientation Groundspeed Altitude Reporting Facility
EDT Latitude Longitude Course Direction KTS MPH feet Rate Location/Type
09:56AM 33.6361 -101.8317 182° South 210 242 4,300  Level Fort Worth Center
09:56AM 33.6089 -101.8328 182° South 183 211 5,500 2,220 Climbing Fort Worth Center
09:57AM 33.5517 -101.8000 154° Southeast 253 291 7,700 2,520 Climbing Fort Worth Center
09:58AM 33.5272 -101.7839 151° Southeast 245 282 9,000 3,000 Climbing Fort Worth Center
09:58AM 33.4925 -101.7622 153° Southeast 266 306 10,400 2,580 Climbing Fort Worth Center
09:59AM 33.4744 -101.7464 144° Southeast 283 326 11,600 2,580 Climbing Fort Worth Center
10:00AM 33.4097 -101.6858 142° Southeast 277 319 14,200 2,400 Climbing Fort Worth Center
10:01AM 33.3486 -101.6383 147° Southeast 284 327 16,500 2,340 Climbing Fort Worth Center
10:02AM 33.2694 -101.5722 145° Southeast 301 346 18,900 2,040 Climbing Fort Worth Center
10:03AM 33.1981 -101.5194 148° Southeast 326 375 20,600 1,980 Climbing Fort Worth Center
10:04AM 33.1128 -101.4486 145° Southeast 343 395 22,900 1,920 Climbing Fort Worth Center
10:05AM 33.0394 -101.3931 148° Southeast 343 395 24,500 1,320 Climbing Fort Worth Center
10:06AM 32.9478 -101.3222 147° Southeast 349 402 25,600 1,200 Climbing Fort Worth Center
10:07AM 32.8622 -101.2567 147° Southeast 354 407 26,900 1,200 Climbing Fort Worth Center
10:08AM 32.7806 -101.1914 146° Southeast 354 407 28,000 1,080 Climbing Fort Worth Center
10:09AM 32.6928 -101.1233 147° Southeast 359 413 29,100 1,200 Climbing Fort Worth Center
10:10AM 32.6072 -101.0558 146° Southeast 364 419 30,400 1,140 Climbing Fort Worth Center
10:11AM 32.5194 -100.9858 146° Southeast 369 425 31,400 1,320 Climbing Fort Worth Center
10:12AM 32.4294 -100.9206 149° Southeast 375 432 33,100 1,440 Climbing Fort Worth Center
10:13AM 32.3436 -100.8486 145° Southeast 380 437 34,300 1,080 Climbing Fort Worth Center
10:14AM 32.2617 -100.7914 149° Southeast 385 443 35,300 1,200 Climbing Fort Worth Center
10:15AM 32.1781 -100.7219 145° Southeast 385 443 36,700 1,020 Climbing Fort Worth Center
10:16AM 32.0900 -100.6575 148° Southeast 380 437 37,400 840 Climbing Fort Worth Center
10:17AM 32.0019 -100.5883 146° Southeast 380 437 38,400 780 Climbing Fort Worth Center
10:18AM 31.9139 -100.5217 147° Southeast 380 437 39,000 300 Climbing Fort Worth Center
10:19AM 31.8258 -100.4525 146° Southeast 380 437 39,000  Level Fort Worth Center
10:21AM 31.6000 -100.2789 147° Southeast 418 481 39,000  Level Houston Center
10:22AM 31.5003 -100.2014 146° Southeast 427 491 39,000  Level Houston Center
10:23AM 31.3983 -100.1269 148° Southeast 430 495 39,000  Level Houston Center
10:24AM 31.2758 -100.0331 147° Southeast 437 503 39,000  Level Houston Center
10:25AM 31.1747 -99.9572 147° Southeast 434 499 39,000  Level Houston Center
10:26AM 31.0719 -99.8803 147° Southeast 436 502 39,000  Level Houston Center
10:27AM 30.9697 -99.8022 147° Southeast 438 504 39,000  Level Houston Center
10:28AM 30.8667 -99.7269 148° Southeast 436 502 39,000  Level Houston Center
10:29AM 30.7639 -99.6492 147° Southeast 439 505 39,000  Level Houston Center
10:30AM 30.6608 -99.5733 148° Southeast 438 504 39,000  Level Houston Center
10:31AM 30.5586 -99.4964 147° Southeast 438 504 39,000  Level Houston Center
10:32AM 30.4544 -99.4214 148° Southeast 438 504 39,000  Level Houston Center
10:33AM 30.3325 -99.3294 147° Southeast 435 501 39,000  Level Houston Center
10:34AM 30.2292 -99.2539 148° Southeast 438 504 39,000  Level Houston Center
10:35AM 30.1272 -99.1794 148° Southeast 433 498 39,000  Level Houston Center
10:36AM 30.0244 -99.1042 148° Southeast 435 501 39,000  Level Houston Center
10:37AM 29.9139 -99.0244 148° Southeast 435 501 39,000  Level Houston Center
10:38AM 29.8042 -98.9439 147° Southeast 435 501 39,000  Level Houston Center
10:39AM 29.7006 -98.8703 148° Southeast 438 504 39,000  Level Houston Center
10:40AM 29.5986 -98.7947 147° Southeast 437 503 39,000  Level Houston Center
10:42AM 29.4869 -98.7164 149° Southeast 438 504 39,000 -720 Level Houston Center
10:43AM 29.3836 -98.6411 148° Southeast 442 509 37,600 -1,860 Descending Houston Center
10:44AM 29.2725 -98.5597 147° Southeast 442 509 35,300 -2,280 Descending Houston Center
10:45AM 29.1767 -98.4925 149° Southeast 411 473 33,000 -2,340 Descending Houston Center
10:46AM 29.0886 -98.4283 148° Southeast 380 437 30,600 -2,460 Descending Houston Center
10:47AM 28.9928 -98.3625 149° Southeast 374 430 28,000 -2,460 Descending Houston Center
10:48AM 28.9050 -98.2969 147° Southeast 377 434 25,600 -2,340 Descending Houston Center
10:49AM 28.8133 -98.2333 149° Southeast 385 443 23,300 -2,340 Descending Houston Center
10:50AM 28.7214 -98.1658 147° Southeast 392 451 20,900 -2,280 Descending Houston Center
10:51AM 28.6339 -98.1033 148° Southeast 395 455 18,700 -2,220 Descending Houston Center
10:52AM 28.5528 -98.0436 147° Southeast 361 415 16,400 -2,580 Descending Houston Center
10:53AM 28.4758 -97.9914 149° Southeast 334 384 14,000 -2,520 Descending Houston Center
10:54AM 28.4028 -97.9369 147° Southeast 321 369 11,900 -900 Descending Houston Center
10:55AM 28.3144 -97.8747 148° Southeast 301 346 12,000 -480 Climbing Houston Center
10:56AM 28.2528 -97.8311 148° Southeast 309 356 11,000 -1,200 Descending Houston Center
10:56AM 28.2431 -97.8242 148° Southeast 302 348 10,800 -1,680 Descending Houston Center
10:57AM 28.1931 -97.7819 143° Southeast 306 352 9,500 -1,920 Descending Houston Center
10:57AM 28.1747 -97.7575 130° Southeast 300 345 8,900 -2,100 Descending Houston Center
10:58AM 28.1394 -97.7133 132° Southeast 295 339 7,400 -2,040 Descending Houston Center
10:58AM 28.1167 -97.7064 165° South 299 344 6,800 -2,100 Descending Houston Center
10:59AM 28.0447 -97.6825 164° South 271 312 4,400 -2,760 Descending Houston Center
11:00AM 27.9914 -97.6669 166° South 246 283 2,400 -1,140 Descending Houston Center
11:00AM 27.9619 -97.6536 158° South 267 307 3,300 -600 Climbing Houston Center
11:00AM 27.9394 -97.6528 178° South 200 230 1,900 -960 Descending Houston Center
11:01AM 27.8983 -97.6442 170° South 144 166 1,900  Level Houston Center
11:03AM 27.8678 -97.6128 138° Southeast 133 153 1,900 -60 Level Houston Center
11:04AM 27.8436 -97.5853 135° Southeast 128 147 1,800 -360 Descending Houston Center
11:05AM 27.8203 -97.5625 139° Southeast 102 117 1,200 -600 Descending Houston Center
11:06AM 27.7986 -97.5369 134° Southeast 108 124 600 -600 Descending Houston Center
11:08AM 27.7667 -97.5000 204° Southwest  Level FlightAware Approximate